Terminal Aerodrome Forecast
Issued by NWS Melbourne, FL

Home | Current Version | Previous Version | Text Only | Print | Product List | Glossary On
Versions: 1 2 3 4 5 6 7 8 9 10 11 12 13 14 15 16 17 18 19 20 21 22 23 24 25
000
FTUS42 KMLB 271732
TAFMCO
TAF
KMCO 271732Z 2718/2818 17010G16KT P6SM FEW060
     FM272300 13010KT P6SM FEW050
     FM280300 16005KT P6SM FEW040
     FM281400 17010KT P6SM FEW040=

USA.gov is the U.S. government's official web portal to all federal, state and local government web resources and services.